createdAt,value
2023-06-29T00:00:01.573Z,139.67
2023-06-29T00:00:33.603Z,134.00
2023-06-29T00:01:06.158Z,132.00
2023-06-29T00:01:38.215Z,130.00
2023-06-29T00:02:10.242Z,127.00
2023-06-29T00:02:42.285Z,125.33
2023-06-29T00:03:14.439Z,123.67
2023-06-29T00:03:46.590Z,124.00
2023-06-29T00:04:18.631Z,124.00
2023-06-29T00:04:50.653Z,123.67
2023-06-29T00:05:23.015Z,123.33
2023-06-29T00:05:55.069Z,124.00
2023-06-29T00:06:27.125Z,122.00
2023-06-29T00:06:59.150Z,120.67
2023-06-29T00:07:32.592Z,120.33
2023-06-29T00:08:05.133Z,118.67
2023-06-29T00:08:37.223Z,118.00
2023-06-29T00:09:09.219Z,118.00
2023-06-29T00:09:41.220Z,118.00
2023-06-29T00:10:13.228Z,117.33
2023-06-29T00:10:45.250Z,117.00
2023-06-29T00:11:17.327Z,117.00
2023-06-29T00:11:49.401Z,117.00
2023-06-29T00:12:21.471Z,116.67
2023-06-29T00:12:53.708Z,116.00
2023-06-29T00:13:25.744Z,116.33
2023-06-29T00:13:57.775Z,116.00
2023-06-29T00:14:29.750Z,116.00
2023-06-29T00:15:01.787Z,115.67
2023-06-29T00:15:33.951Z,114.67
2023-06-29T00:16:06.124Z,113.33
2023-06-29T00:16:38.250Z,113.00
2023-06-29T00:17:10.315Z,112.67
2023-06-29T00:17:42.493Z,112.00
2023-06-29T00:18:14.640Z,111.33
2023-06-29T00:18:46.683Z,110.67
2023-06-29T00:19:19.220Z,109.33
2023-06-29T00:19:51.279Z,107.33
2023-06-29T00:20:23.491Z,107.00
2023-06-29T00:20:55.688Z,106.33
2023-06-29T00:21:27.756Z,106.00
2023-06-29T00:21:59.820Z,106.00
2023-06-29T00:22:33.493Z,106.00
2023-06-29T00:23:05.563Z,106.00
2023-06-29T00:23:37.605Z,106.67
2023-06-29T00:24:09.804Z,107.00
2023-06-29T00:24:42.111Z,108.00
2023-06-29T00:25:14.273Z,108.00
2023-06-29T00:25:46.275Z,109.00
2023-06-29T00:26:18.428Z,109.67
2023-06-29T00:26:50.438Z,111.00
2023-06-29T00:27:23.059Z,114.33
2023-06-29T00:27:55.063Z,120.33
2023-06-29T00:28:27.117Z,127.00
2023-06-29T00:28:59.160Z,132.00
2023-06-29T00:29:31.163Z,135.67
2023-06-29T00:30:03.519Z,137.00
2023-06-29T00:30:35.699Z,137.00
2023-06-29T00:31:07.795Z,137.00
2023-06-29T00:31:40.041Z,138.00
2023-06-29T00:32:12.104Z,138.00
2023-06-29T00:32:44.258Z,138.33
2023-06-29T00:33:17.261Z,139.00
2023-06-29T00:33:49.244Z,138.00
2023-06-29T00:34:21.217Z,138.00
2023-06-29T00:34:53.220Z,138.00
2023-06-29T00:35:25.306Z,137.00
2023-06-29T00:35:57.334Z,136.67
2023-06-29T00:36:29.340Z,136.00
2023-06-29T00:37:01.342Z,136.00
2023-06-29T00:37:34.702Z,135.00
2023-06-29T00:38:06.672Z,135.00
2023-06-29T00:38:38.753Z,135.00
2023-06-29T00:39:10.794Z,134.33
2023-06-29T00:39:42.829Z,134.00
2023-06-29T00:40:14.981Z,133.33
2023-06-29T00:40:48.958Z,132.33
2023-06-29T00:41:20.992Z,132.00
2023-06-29T00:41:53.377Z,132.00
2023-06-29T00:42:25.351Z,131.33
2023-06-29T00:42:57.600Z,131.00
2023-06-29T00:43:29.649Z,131.00
2023-06-29T00:44:01.708Z,130.33
2023-06-29T00:44:33.690Z,128.00
2023-06-29T00:45:06.944Z,126.33
2023-06-29T00:45:38.962Z,125.00
2023-06-29T00:46:12.102Z,124.00
2023-06-29T00:46:44.161Z,124.67
2023-06-29T00:47:16.455Z,125.00
2023-06-29T00:47:48.606Z,126.67
2023-06-29T00:48:20.848Z,129.00
2023-06-29T00:48:53.519Z,135.00
2023-06-29T00:49:25.821Z,144.33
2023-06-29T00:49:58.051Z,152.00
2023-06-29T00:50:30.418Z,159.00
2023-06-29T00:51:03.026Z,164.67
2023-06-29T00:51:35.141Z,169.33
2023-06-29T00:52:08.328Z,173.33
2023-06-29T00:52:41.794Z,172.33
2023-06-29T00:53:13.890Z,171.33
2023-06-29T00:53:45.986Z,174.67
2023-06-29T00:54:18.672Z,179.33
2023-06-29T00:54:51.464Z,178.00
2023-06-29T00:55:23.878Z,177.00
2023-06-29T00:55:56.760Z,175.33
2023-06-29T00:56:33.343Z,175.67
2023-06-29T00:57:06.121Z,178.00
2023-06-29T00:57:38.190Z,181.33
2023-06-29T00:58:10.356Z,185.33
2023-06-29T00:58:42.540Z,188.33
2023-06-29T00:59:15.337Z,188.33
2023-06-29T00:59:47.352Z,185.67
2023-06-29T01:00:19.658Z,185.67
2023-06-29T01:00:51.785Z,188.00
2023-06-29T01:01:23.915Z,195.00
2023-06-29T01:01:56.181Z,197.00
2023-06-29T01:02:29.710Z,198.00
2023-06-29T01:03:02.163Z,197.33
2023-06-29T01:03:34.447Z,196.00
2023-06-29T01:04:07.024Z,196.33
2023-06-29T01:04:39.155Z,197.67
2023-06-29T01:05:13.633Z,195.67
2023-06-29T01:05:47.010Z,191.67
2023-06-29T01:06:24.018Z,183.00
2023-06-29T01:07:05.646Z,165.67
2023-06-29T01:07:46.466Z,156.67
2023-06-29T01:08:23.250Z,151.33
2023-06-29T01:08:59.364Z,148.00
2023-06-29T01:09:33.108Z,138.67
2023-06-29T01:10:07.069Z,129.67
2023-06-29T01:10:39.500Z,124.67
2023-06-29T01:11:13.382Z,118.33
2023-06-29T01:11:45.679Z,113.00
2023-06-29T01:12:18.397Z,108.67
2023-06-29T01:12:52.750Z,104.33
2023-06-29T01:13:28.297Z,100.67
2023-06-29T01:14:03.010Z,99.00
2023-06-29T01:14:38.424Z,101.00
2023-06-29T01:15:11.899Z,107.00
2023-06-29T01:15:45.830Z,111.00
2023-06-29T01:16:18.888Z,109.67
2023-06-29T01:16:52.979Z,106.00
2023-06-29T01:17:30.290Z,104.00
2023-06-29T01:18:05.361Z,104.00
2023-06-29T01:18:38.802Z,105.00
2023-06-29T01:19:18.266Z,106.00
2023-06-29T01:19:52.526Z,107.33
2023-06-29T01:20:27.447Z,108.00
2023-06-29T01:21:01.401Z,108.67
2023-06-29T01:21:40.321Z,109.67
2023-06-29T01:22:19.068Z,111.67
2023-06-29T01:22:57.743Z,114.00
2023-06-29T01:23:34.210Z,125.00
2023-06-29T01:24:07.217Z,144.33
2023-06-29T01:24:41.493Z,158.00
2023-06-29T01:25:14.236Z,169.00
2023-06-29T01:25:46.649Z,176.67
2023-06-29T01:26:19.422Z,180.00
2023-06-29T01:26:51.771Z,182.00
2023-06-29T01:27:24.357Z,184.67
2023-06-29T01:27:56.660Z,183.67
2023-06-29T01:28:28.709Z,183.33
2023-06-29T01:29:00.696Z,187.00
2023-06-29T01:29:32.731Z,190.33
2023-06-29T01:30:05.681Z,190.00
2023-06-29T01:30:37.789Z,187.67
2023-06-29T01:31:09.763Z,189.00
2023-06-29T01:31:41.792Z,191.67
2023-06-29T01:32:13.825Z,195.00
2023-06-29T01:32:45.917Z,201.00
2023-06-29T01:33:20.773Z,209.33
2023-06-29T01:33:52.872Z,219.67
2023-06-29T01:34:24.953Z,218.67
2023-06-29T01:34:57.064Z,219.67
2023-06-29T01:35:29.073Z,223.67
2023-06-29T01:36:07.330Z,227.67
2023-06-29T01:36:47.546Z,232.00
2023-06-29T01:37:26.463Z,233.33
2023-06-29T01:38:03.161Z,231.33
2023-06-29T01:38:41.334Z,233.67
2023-06-29T01:39:23.704Z,233.00
2023-06-29T01:40:01.210Z,229.00
2023-06-29T01:40:35.694Z,226.00
2023-06-29T01:41:10.317Z,224.67
2023-06-29T01:41:44.333Z,221.00
2023-06-29T01:42:16.418Z,218.33
2023-06-29T01:42:50.006Z,217.00
2023-06-29T01:43:23.653Z,217.33
2023-06-29T01:43:57.115Z,218.00
2023-06-29T01:44:29.226Z,218.67
2023-06-29T01:45:03.008Z,220.67
2023-06-29T01:45:36.684Z,227.33
2023-06-29T01:46:09.830Z,227.33
2023-06-29T01:46:42.394Z,227.00
2023-06-29T01:47:15.615Z,225.67
2023-06-29T01:47:47.678Z,223.67
2023-06-29T01:48:20.036Z,222.00
2023-06-29T01:48:52.728Z,216.67
2023-06-29T01:49:25.063Z,208.67
2023-06-29T01:49:57.192Z,204.33
2023-06-29T01:50:29.815Z,205.00
2023-06-29T01:51:02.578Z,214.67
2023-06-29T01:51:34.850Z,233.33
2023-06-29T01:52:07.795Z,243.67
2023-06-29T01:52:40.062Z,251.67
2023-06-29T01:53:12.452Z,256.67
2023-06-29T01:53:44.694Z,257.00
2023-06-29T01:54:16.800Z,256.00
2023-06-29T01:54:48.972Z,261.67
2023-06-29T01:55:23.216Z,270.67
2023-06-29T01:55:55.276Z,276.67
2023-06-29T01:56:27.244Z,280.00
2023-06-29T01:56:59.291Z,282.00
2023-06-29T01:57:31.348Z,280.00
2023-06-29T01:58:03.432Z,279.67
2023-06-29T01:58:35.517Z,279.33
2023-06-29T01:59:07.562Z,281.67
2023-06-29T01:59:40.573Z,282.33
2023-06-29T02:00:14.391Z,281.67
2023-06-29T02:00:46.469Z,280.67
2023-06-29T02:01:18.555Z,281.00
2023-06-29T02:01:50.901Z,281.67
2023-06-29T02:02:22.995Z,279.33
2023-06-29T02:02:55.169Z,273.00
2023-06-29T02:03:27.367Z,270.00
2023-06-29T02:03:59.485Z,265.67
2023-06-29T02:04:31.808Z,260.33
2023-06-29T02:05:04.132Z,251.00
2023-06-29T02:05:36.250Z,238.67
2023-06-29T02:06:08.514Z,225.33
2023-06-29T02:06:40.542Z,213.67
2023-06-29T02:07:12.677Z,206.00
2023-06-29T02:07:44.711Z,196.33
2023-06-29T02:08:16.741Z,189.67
2023-06-29T02:08:48.780Z,183.33
2023-06-29T02:09:20.980Z,180.00
2023-06-29T02:09:52.967Z,176.33
2023-06-29T02:10:26.378Z,172.33
2023-06-29T02:10:58.404Z,169.33
2023-06-29T02:11:30.517Z,166.33
2023-06-29T02:12:02.639Z,164.33
2023-06-29T02:12:34.679Z,162.67
2023-06-29T02:13:06.749Z,160.67
2023-06-29T02:13:38.855Z,158.33
2023-06-29T02:14:10.979Z,158.00
2023-06-29T02:14:43.000Z,156.33
2023-06-29T02:15:15.139Z,153.00
2023-06-29T02:15:47.360Z,150.33
2023-06-29T02:16:19.609Z,153.33
2023-06-29T02:16:52.773Z,155.67
2023-06-29T02:17:24.834Z,154.67
2023-06-29T02:17:56.891Z,151.00
2023-06-29T02:18:28.925Z,149.33
2023-06-29T02:19:01.190Z,147.00
2023-06-29T02:19:33.247Z,145.00
2023-06-29T02:20:06.519Z,143.00
2023-06-29T02:20:38.596Z,138.33
2023-06-29T02:21:10.585Z,132.33
2023-06-29T02:21:42.576Z,125.33
2023-06-29T02:22:14.712Z,121.00
2023-06-29T02:22:46.773Z,121.00
2023-06-29T02:23:18.787Z,121.00
2023-06-29T02:23:50.798Z,120.67
2023-06-29T02:24:23.023Z,119.67
2023-06-29T02:24:55.086Z,121.00
2023-06-29T02:25:28.425Z,120.00
2023-06-29T02:26:00.418Z,119.33
2023-06-29T02:26:32.480Z,120.33
2023-06-29T02:27:04.955Z,123.67
2023-06-29T02:27:36.978Z,127.67
2023-06-29T02:28:09.036Z,131.00
2023-06-29T02:28:41.086Z,132.00
2023-06-29T02:29:13.173Z,133.00
2023-06-29T02:29:45.472Z,133.33
2023-06-29T02:30:17.600Z,133.33
2023-06-29T02:30:49.717Z,133.33
2023-06-29T02:31:21.791Z,132.00
2023-06-29T02:31:54.035Z,129.00
2023-06-29T02:32:26.113Z,126.67
2023-06-29T02:32:58.191Z,121.33
2023-06-29T02:33:30.264Z,120.00
2023-06-29T02:34:02.286Z,120.67
2023-06-29T02:34:34.333Z,121.67
2023-06-29T02:35:07.156Z,123.00
2023-06-29T02:35:39.198Z,122.67
2023-06-29T02:36:11.257Z,119.33
2023-06-29T02:36:43.260Z,114.00
2023-06-29T02:37:15.309Z,109.33
2023-06-29T02:37:47.317Z,105.00
2023-06-29T02:38:19.378Z,103.00
2023-06-29T02:38:51.347Z,100.00
2023-06-29T02:39:23.455Z,98.33
2023-06-29T02:39:55.458Z,96.33
2023-06-29T02:40:28.878Z,97.33
2023-06-29T02:41:00.859Z,95.67
2023-06-29T02:41:32.922Z,90.00
2023-06-29T02:42:05.278Z,86.00
2023-06-29T02:42:37.305Z,84.33
2023-06-29T02:43:09.393Z,85.33
2023-06-29T02:43:41.477Z,87.00
2023-06-29T02:44:13.544Z,89.00
2023-06-29T02:44:45.550Z,86.33
2023-06-29T02:45:17.603Z,82.33
2023-06-29T02:45:49.675Z,80.67
2023-06-29T02:46:21.778Z,78.67
2023-06-29T02:46:53.824Z,73.00
2023-06-29T02:47:25.885Z,68.33
2023-06-29T02:47:57.970Z,65.33
2023-06-29T02:48:29.997Z,63.00
2023-06-29T02:49:01.995Z,59.33
2023-06-29T02:49:34.028Z,58.00
2023-06-29T02:50:07.298Z,58.00
2023-06-29T02:50:39.296Z,59.33
2023-06-29T02:51:11.349Z,63.67
2023-06-29T02:51:43.470Z,67.33
2023-06-29T02:52:15.449Z,70.33
2023-06-29T02:52:47.432Z,71.67
2023-06-29T02:53:19.489Z,73.00
2023-06-29T02:53:51.523Z,73.67
2023-06-29T02:54:23.589Z,74.33
2023-06-29T02:54:55.644Z,75.33
2023-06-29T02:55:31.121Z,76.67
2023-06-29T02:56:03.271Z,78.00
2023-06-29T02:56:35.329Z,79.00
2023-06-29T02:57:07.398Z,79.67
2023-06-29T02:57:39.451Z,80.00
2023-06-29T02:58:11.458Z,81.33
2023-06-29T02:58:43.515Z,83.67
2023-06-29T02:59:15.584Z,84.67
2023-06-29T02:59:47.637Z,85.67
2023-06-29T03:00:19.810Z,87.33
2023-06-29T03:00:51.888Z,89.00
2023-06-29T03:01:24.128Z,91.00
2023-06-29T03:01:56.182Z,92.00
2023-06-29T03:02:28.314Z,92.00
2023-06-29T03:03:00.511Z,93.00
2023-06-29T03:03:32.571Z,97.00
2023-06-29T03:04:04.842Z,102.67
2023-06-29T03:04:36.821Z,106.00
2023-06-29T03:05:09.566Z,106.33
2023-06-29T03:05:41.865Z,104.00
2023-06-29T03:06:14.174Z,102.67
2023-06-29T03:06:46.170Z,101.33
2023-06-29T03:07:18.245Z,99.00
2023-06-29T03:07:50.310Z,93.67
2023-06-29T03:08:22.300Z,84.67
2023-06-29T03:08:54.366Z,76.00
2023-06-29T03:09:26.361Z,70.00
2023-06-29T03:09:58.412Z,66.67
2023-06-29T03:10:31.827Z,65.00
2023-06-29T03:11:04.061Z,61.67
2023-06-29T03:11:36.074Z,61.33
2023-06-29T03:12:10.561Z,62.67
2023-06-29T03:12:42.622Z,63.67
2023-06-29T03:13:14.671Z,64.67
2023-06-29T03:13:46.658Z,64.33
2023-06-29T03:14:18.674Z,64.00
2023-06-29T03:14:51.203Z,65.00
2023-06-29T03:15:23.307Z,65.00
2023-06-29T03:15:55.426Z,65.00
2023-06-29T03:16:27.489Z,64.67
2023-06-29T03:16:59.614Z,63.67
2023-06-29T03:17:31.744Z,60.67
2023-06-29T03:18:03.922Z,56.33
2023-06-29T03:18:36.011Z,53.33
2023-06-29T03:19:08.070Z,50.33
2023-06-29T03:19:40.246Z,47.33
2023-06-29T03:20:12.993Z,46.00
2023-06-29T03:20:45.024Z,45.33
2023-06-29T03:21:18.665Z,43.33
2023-06-29T03:21:50.934Z,43.00
2023-06-29T03:22:22.992Z,44.33
2023-06-29T03:22:55.581Z,46.33
2023-06-29T03:23:27.583Z,48.67
2023-06-29T03:23:59.648Z,50.00
2023-06-29T03:24:31.731Z,51.33
2023-06-29T03:25:04.068Z,54.67
2023-06-29T03:25:37.510Z,59.33
2023-06-29T03:26:09.494Z,63.67
2023-06-29T03:26:41.536Z,69.00
2023-06-29T03:27:13.616Z,74.33
2023-06-29T03:27:45.617Z,81.67
2023-06-29T03:28:17.634Z,85.33
2023-06-29T03:28:49.602Z,83.67
2023-06-29T03:29:21.618Z,81.33
2023-06-29T03:29:54.125Z,80.00
2023-06-29T03:30:26.139Z,80.00
2023-06-29T03:30:58.228Z,80.00
2023-06-29T03:31:30.301Z,80.00
2023-06-29T03:32:02.435Z,80.00
2023-06-29T03:32:34.663Z,80.00
2023-06-29T03:33:06.817Z,83.00
2023-06-29T03:33:38.818Z,90.00
2023-06-29T03:34:10.816Z,97.00
2023-06-29T03:34:42.882Z,102.00
2023-06-29T03:35:15.031Z,103.67
2023-06-29T03:35:47.047Z,101.00
2023-06-29T03:36:19.048Z,100.67
2023-06-29T03:36:51.077Z,103.33
2023-06-29T03:37:23.127Z,107.00
2023-06-29T03:37:55.186Z,107.00
2023-06-29T03:38:27.217Z,103.33
2023-06-29T03:38:59.221Z,100.67
2023-06-29T03:39:31.266Z,99.67
2023-06-29T03:40:03.420Z,99.00
2023-06-29T03:40:36.956Z,99.00
2023-06-29T03:41:08.945Z,99.00
2023-06-29T03:41:40.996Z,103.00
2023-06-29T03:42:13.018Z,109.00
2023-06-29T03:42:45.033Z,111.00
2023-06-29T03:43:17.116Z,108.00
2023-06-29T03:43:49.304Z,107.00
2023-06-29T03:44:21.278Z,107.33
2023-06-29T03:44:53.285Z,107.33
2023-06-29T03:45:25.288Z,107.00
2023-06-29T03:45:58.812Z,107.33
2023-06-29T03:46:30.827Z,109.33
2023-06-29T03:47:02.813Z,118.00
2023-06-29T03:47:34.916Z,129.33
2023-06-29T03:48:07.228Z,130.33
2023-06-29T03:48:39.360Z,134.33
2023-06-29T03:49:11.484Z,141.67
2023-06-29T03:49:43.523Z,150.33
2023-06-29T03:50:15.562Z,151.67
2023-06-29T03:51:19.667Z,149.33
2023-06-29T03:51:51.712Z,137.33
2023-06-29T03:52:23.703Z,134.00
2023-06-29T03:52:55.791Z,132.00
2023-06-29T03:53:27.834Z,129.67
2023-06-29T03:53:59.873Z,122.00
2023-06-29T03:54:31.955Z,110.00
2023-06-29T03:55:04.485Z,104.33
2023-06-29T03:55:37.856Z,104.33
2023-06-29T03:56:09.989Z,104.67
2023-06-29T03:56:42.012Z,100.67
2023-06-29T03:57:14.113Z,89.67
2023-06-29T03:57:46.131Z,79.33
2023-06-29T03:58:18.226Z,74.00
2023-06-29T03:58:50.204Z,73.00
2023-06-29T03:59:22.221Z,74.67
2023-06-29T03:59:54.202Z,75.00
2023-06-29T04:00:26.616Z,76.00
2023-06-29T04:00:58.752Z,78.33
2023-06-29T04:01:30.799Z,79.00
2023-06-29T04:02:02.953Z,79.33
2023-06-29T04:02:35.109Z,81.33
2023-06-29T04:03:07.307Z,82.00
2023-06-29T04:03:39.833Z,82.00
2023-06-29T04:04:11.971Z,81.33
2023-06-29T04:04:43.974Z,79.67
2023-06-29T04:05:16.245Z,78.33
2023-06-29T04:05:48.275Z,77.00
2023-06-29T04:06:20.309Z,77.67
2023-06-29T04:06:52.372Z,78.33
2023-06-29T04:07:24.432Z,79.67
2023-06-29T04:07:56.576Z,80.00
2023-06-29T04:08:28.632Z,81.00
2023-06-29T04:09:00.635Z,81.33
2023-06-29T04:09:32.644Z,82.00
2023-06-29T04:10:05.242Z,82.00
2023-06-29T04:10:38.658Z,82.67
2023-06-29T04:11:12.483Z,83.00
2023-06-29T04:11:44.744Z,83.00
2023-06-29T04:12:16.731Z,83.67
2023-06-29T04:12:48.744Z,86.00
2023-06-29T04:13:20.736Z,91.33
2023-06-29T04:13:52.759Z,98.33
2023-06-29T04:14:24.768Z,104.67
2023-06-29T04:14:56.780Z,113.00
2023-06-29T04:15:28.861Z,119.33
2023-06-29T04:16:00.883Z,116.33
2023-06-29T04:16:33.756Z,112.00
2023-06-29T04:17:05.827Z,109.33
2023-06-29T04:17:38.059Z,106.00
2023-06-29T04:18:10.129Z,97.33
2023-06-29T04:18:42.157Z,86.33
2023-06-29T04:19:16.195Z,80.00
2023-06-29T04:19:49.119Z,78.00
2023-06-29T04:20:21.117Z,78.33
2023-06-29T04:20:53.877Z,79.67
2023-06-29T04:21:25.868Z,81.00
2023-06-29T04:21:57.849Z,82.00
2023-06-29T04:22:29.928Z,82.67
2023-06-29T04:23:01.906Z,84.67
2023-06-29T04:23:34.032Z,90.33
2023-06-29T04:24:06.609Z,100.33
2023-06-29T04:24:38.664Z,110.00
2023-06-29T04:25:11.303Z,118.00
2023-06-29T04:25:44.962Z,121.00
2023-06-29T04:26:17.148Z,120.33
2023-06-29T04:26:49.175Z,122.33
2023-06-29T04:27:21.223Z,127.00
2023-06-29T04:27:53.340Z,130.67
2023-06-29T04:28:25.327Z,132.33
2023-06-29T04:29:01.656Z,134.67
2023-06-29T04:29:33.693Z,137.33
2023-06-29T04:30:06.795Z,140.00
2023-06-29T04:30:41.051Z,141.67
2023-06-29T04:31:13.168Z,140.00
2023-06-29T04:31:45.281Z,141.33
2023-06-29T04:32:17.392Z,147.67
2023-06-29T04:32:49.548Z,152.67
2023-06-29T04:33:21.802Z,157.00
2023-06-29T04:33:53.777Z,156.00
2023-06-29T04:34:25.809Z,153.67
2023-06-29T04:34:57.880Z,153.00
2023-06-29T04:35:29.894Z,151.33
2023-06-29T04:36:01.903Z,153.00
2023-06-29T04:36:33.986Z,158.00
2023-06-29T04:37:06.526Z,163.33
2023-06-29T04:37:39.581Z,167.33
2023-06-29T04:38:12.473Z,169.33
2023-06-29T04:38:44.492Z,173.33
2023-06-29T04:39:17.083Z,174.67
2023-06-29T04:39:49.162Z,172.67
2023-06-29T04:40:21.186Z,166.00
2023-06-29T04:40:54.989Z,160.33
2023-06-29T04:41:27.299Z,158.00
2023-06-29T04:41:59.278Z,155.67
2023-06-29T04:42:31.307Z,154.33
2023-06-29T04:43:03.576Z,153.33
2023-06-29T04:43:35.623Z,153.00
2023-06-29T04:44:08.115Z,153.33
2023-06-29T04:44:40.129Z,153.00
2023-06-29T04:45:16.398Z,153.00
2023-06-29T04:45:48.375Z,152.33
2023-06-29T04:46:20.566Z,148.33
2023-06-29T04:46:52.624Z,135.67
2023-06-29T04:47:24.685Z,121.33
2023-06-29T04:47:56.805Z,114.33
2023-06-29T04:48:28.907Z,111.67
2023-06-29T04:49:00.918Z,106.33
2023-06-29T04:49:33.369Z,101.00
2023-06-29T04:50:06.501Z,95.33
2023-06-29T04:50:38.595Z,93.00
2023-06-29T04:51:10.626Z,91.00
2023-06-29T04:51:42.647Z,89.00
2023-06-29T04:52:14.640Z,87.67
2023-06-29T04:52:46.639Z,87.33
2023-06-29T04:53:18.639Z,88.33
2023-06-29T04:53:50.592Z,86.33
2023-06-29T04:54:22.632Z,86.00
2023-06-29T04:54:54.699Z,83.67
2023-06-29T04:55:27.122Z,87.00
2023-06-29T04:56:00.749Z,88.00
2023-06-29T04:56:32.956Z,87.67
2023-06-29T04:57:05.441Z,86.00
2023-06-29T04:57:37.571Z,84.00
2023-06-29T04:58:09.605Z,81.00
2023-06-29T04:58:41.613Z,79.33
2023-06-29T04:59:13.621Z,80.00
2023-06-29T04:59:45.593Z,81.33
2023-06-29T05:00:18.499Z,82.00
2023-06-29T05:00:51.084Z,83.33
2023-06-29T05:01:23.148Z,84.67
2023-06-29T05:01:55.643Z,85.33
2023-06-29T05:02:27.840Z,85.00
2023-06-29T05:02:59.996Z,84.33
2023-06-29T05:03:32.144Z,82.00
2023-06-29T05:04:04.244Z,80.00
2023-06-29T05:04:36.215Z,77.67
2023-06-29T05:05:09.390Z,76.33
2023-06-29T05:05:41.449Z,76.67
2023-06-29T05:06:13.752Z,77.00
2023-06-29T05:06:45.785Z,79.00
2023-06-29T05:07:18.196Z,80.33
2023-06-29T05:07:50.389Z,81.33
2023-06-29T05:08:22.473Z,82.00
2023-06-29T05:08:54.929Z,82.00
2023-06-29T05:09:26.911Z,82.00
2023-06-29T05:09:58.898Z,82.00
2023-06-29T05:10:30.940Z,81.00
2023-06-29T05:11:04.581Z,81.00
2023-06-29T05:11:36.708Z,80.00
2023-06-29T05:12:10.951Z,79.00
2023-06-29T05:12:42.943Z,78.33
2023-06-29T05:13:15.205Z,78.00
2023-06-29T05:13:47.241Z,77.33
2023-06-29T05:14:19.259Z,77.00
2023-06-29T05:14:51.292Z,77.00
2023-06-29T05:15:23.344Z,77.00
2023-06-29T05:15:55.356Z,76.00
2023-06-29T05:16:27.394Z,75.33
2023-06-29T05:16:59.791Z,73.67
2023-06-29T05:17:33.709Z,72.67
2023-06-29T05:18:07.472Z,71.67
2023-06-29T05:18:39.447Z,70.33
2023-06-29T05:19:11.500Z,70.00
2023-06-29T05:19:43.529Z,69.00
2023-06-29T05:20:16.101Z,69.67
2023-06-29T05:20:48.088Z,69.00
2023-06-29T05:21:20.125Z,69.00
2023-06-29T05:21:52.209Z,69.00
2023-06-29T05:22:24.225Z,69.00
2023-06-29T05:22:56.221Z,69.00
2023-06-29T05:23:28.283Z,69.00
2023-06-29T05:24:00.361Z,69.00
2023-06-29T05:24:32.362Z,69.00
2023-06-29T05:25:05.255Z,68.33
2023-06-29T05:25:37.315Z,68.00
2023-06-29T05:26:10.671Z,68.00
2023-06-29T05:26:42.739Z,68.00
2023-06-29T05:27:14.743Z,68.00
2023-06-29T05:27:57.961Z,68.00
2023-06-29T05:28:30.036Z,68.33
2023-06-29T05:29:05.618Z,69.00
2023-06-29T05:29:38.592Z,69.00
2023-06-29T05:30:11.832Z,69.00
2023-06-29T05:30:43.812Z,69.00
2023-06-29T05:31:16.702Z,69.33
2023-06-29T05:31:48.844Z,70.00
2023-06-29T05:32:21.121Z,70.00
2023-06-29T05:32:53.330Z,70.00
2023-06-29T05:33:25.401Z,69.00
2023-06-29T05:33:57.456Z,69.00
2023-06-29T05:34:29.455Z,69.00
2023-06-29T05:35:07.053Z,69.00
2023-06-29T05:35:39.067Z,69.00
2023-06-29T05:36:11.140Z,69.00
2023-06-29T05:36:43.230Z,69.00
2023-06-29T05:37:15.237Z,69.00
2023-06-29T05:37:47.983Z,69.00
2023-06-29T05:38:20.074Z,69.00
2023-06-29T05:38:52.123Z,69.00
2023-06-29T05:39:24.177Z,69.00
2023-06-29T05:39:56.265Z,69.00
2023-06-29T05:40:28.340Z,68.33
2023-06-29T05:41:01.985Z,67.33
2023-06-29T05:41:36.478Z,66.33
2023-06-29T05:42:08.889Z,65.00
2023-06-29T05:42:41.277Z,64.33
2023-06-29T05:43:13.326Z,64.00
2023-06-29T05:43:45.397Z,64.00
2023-06-29T05:44:17.898Z,64.00
2023-06-29T05:44:49.921Z,64.00
2023-06-29T05:45:22.101Z,64.00
2023-06-29T05:45:54.152Z,63.67
2023-06-29T05:46:26.254Z,63.00
2023-06-29T05:46:58.461Z,63.00
2023-06-29T05:47:30.496Z,63.00
2023-06-29T05:48:02.520Z,63.00
2023-06-29T05:48:34.678Z,63.00
2023-06-29T05:49:06.674Z,63.00
2023-06-29T05:49:38.712Z,62.00
2023-06-29T05:50:11.126Z,62.00
2023-06-29T05:50:43.412Z,61.33
2023-06-29T05:51:15.680Z,60.67
2023-06-29T05:51:47.728Z,60.00
2023-06-29T05:52:19.866Z,60.00
2023-06-29T05:52:51.881Z,60.00
2023-06-29T05:53:23.900Z,59.33
2023-06-29T05:53:56.769Z,58.33
2023-06-29T05:54:28.807Z,56.67
2023-06-29T05:55:00.809Z,54.33
2023-06-29T05:55:32.875Z,54.00
2023-06-29T05:56:05.029Z,53.33
2023-06-29T05:56:38.450Z,53.00
2023-06-29T05:57:10.497Z,53.00
2023-06-29T05:57:42.642Z,54.00
2023-06-29T05:58:14.757Z,54.33
2023-06-29T05:58:47.078Z,55.67
2023-06-29T05:59:19.241Z,57.00
2023-06-29T05:59:51.208Z,57.00
2023-06-29T06:00:23.670Z,57.00
2023-06-29T06:00:55.670Z,57.00
2023-06-29T06:01:27.732Z,57.00
2023-06-29T06:01:59.773Z,56.67
2023-06-29T06:02:31.873Z,56.00
2023-06-29T06:03:04.049Z,56.00
2023-06-29T06:03:36.172Z,56.00
2023-06-29T06:04:08.820Z,56.00
2023-06-29T06:04:41.055Z,55.67
2023-06-29T06:05:13.150Z,55.00
2023-06-29T06:05:45.230Z,55.00
2023-06-29T06:06:17.265Z,56.00
2023-06-29T06:06:49.363Z,56.00
2023-06-29T06:07:28.922Z,56.00
2023-06-29T06:08:01.033Z,56.00
2023-06-29T06:08:33.197Z,56.33
2023-06-29T06:09:05.193Z,57.00
2023-06-29T06:09:37.216Z,57.33
2023-06-29T06:10:10.085Z,58.00
2023-06-29T06:10:42.280Z,58.00
2023-06-29T06:11:14.526Z,58.00
2023-06-29T06:11:47.919Z,58.00
2023-06-29T06:12:20.547Z,58.00
2023-06-29T06:12:52.552Z,58.33
2023-06-29T06:13:24.551Z,59.00
2023-06-29T06:13:56.744Z,60.00
2023-06-29T06:14:28.736Z,60.67
2023-06-29T06:15:00.697Z,61.00
2023-06-29T06:15:32.895Z,61.67
2023-06-29T06:16:05.345Z,62.67
2023-06-29T06:16:37.620Z,63.67
2023-06-29T06:17:09.829Z,64.33
2023-06-29T06:17:42.008Z,65.33
2023-06-29T06:18:14.019Z,66.00
2023-06-29T06:18:46.156Z,66.00
2023-06-29T06:19:18.173Z,66.33
2023-06-29T06:19:50.271Z,67.33
2023-06-29T06:20:22.344Z,68.67
2023-06-29T06:20:54.384Z,69.00
2023-06-29T06:21:26.432Z,69.00
2023-06-29T06:21:58.457Z,69.00
2023-06-29T06:22:30.999Z,69.00
2023-06-29T06:23:03.042Z,69.00
2023-06-29T06:23:35.025Z,68.00
2023-06-29T06:24:07.245Z,68.00
2023-06-29T06:24:39.363Z,67.33
2023-06-29T06:25:11.407Z,67.00
2023-06-29T06:25:43.499Z,67.33
2023-06-29T06:26:15.485Z,69.00
2023-06-29T06:26:49.001Z,72.00
2023-06-29T06:27:21.155Z,76.00
2023-06-29T06:27:53.336Z,78.00
2023-06-29T06:28:25.556Z,77.33
2023-06-29T06:28:57.621Z,76.33
2023-06-29T06:29:29.744Z,76.00
2023-06-29T06:30:01.787Z,75.00
2023-06-29T06:30:33.829Z,75.00
2023-06-29T06:31:05.860Z,74.00
2023-06-29T06:31:37.848Z,73.00
2023-06-29T06:32:10.319Z,72.33
2023-06-29T06:32:42.517Z,72.00
2023-06-29T06:33:14.830Z,72.00
2023-06-29T06:33:46.868Z,72.00
2023-06-29T06:34:18.905Z,72.00
2023-06-29T06:34:51.018Z,72.00
2023-06-29T06:35:23.089Z,72.00
2023-06-29T06:35:55.115Z,72.00
2023-06-29T06:36:28.746Z,72.00
2023-06-29T06:37:01.060Z,72.00
2023-06-29T06:37:33.152Z,72.00
2023-06-29T06:38:05.144Z,73.00
2023-06-29T06:38:49.420Z,75.00
2023-06-29T06:39:22.359Z,77.00
2023-06-29T06:39:54.381Z,77.00
2023-06-29T06:40:27.157Z,77.00
2023-06-29T06:40:59.137Z,77.00
2023-06-29T06:41:31.249Z,77.00
2023-06-29T06:42:05.187Z,77.00
2023-06-29T06:42:38.338Z,77.00
2023-06-29T06:43:11.271Z,77.00
2023-06-29T06:43:43.262Z,77.00
2023-06-29T06:44:15.272Z,77.00
2023-06-29T06:44:51.807Z,77.00
2023-06-29T06:45:23.848Z,77.00
2023-06-29T06:45:55.883Z,77.00
2023-06-29T06:46:27.913Z,77.33
2023-06-29T06:47:00.155Z,78.00
2023-06-29T06:47:33.071Z,78.00
2023-06-29T06:48:05.557Z,78.00
2023-06-29T06:48:37.630Z,78.00
2023-06-29T06:49:09.648Z,78.00
2023-06-29T06:49:41.663Z,78.00
2023-06-29T06:50:13.675Z,77.67
2023-06-29T06:50:46.082Z,76.33
2023-06-29T06:51:18.366Z,74.00
2023-06-29T06:51:50.454Z,71.00
2023-06-29T06:52:22.470Z,69.67
2023-06-29T06:52:54.500Z,69.00